LIPE/BLQ METAR and TAF weather

Enter ICAO airport designator
Station Type Date Time Source
LIPE METAR 2019/12/12 08:50 UTC NOAA

LIPE 120850Z 33004KT 290V350 4000 -SN SCT002 SCT020 01/01 Q1007


Station Type Date Time Source
LIPE Decoded METAR 2019/12/12 08:50 UTC NOAA

Bologna / Borgo Panigale, Italy (LIPE) 44-32N 011-18E 49M
Dec 12, 2019 - 03:50 AM EST / 2019.12.12 0850 UTC
Wind: from the NNW (330 degrees) at 5 MPH (4 KT) (direction variable):0
Visibility: 2 mile(s):0
Sky conditions: partly cloudy
Weather: light snow
Temperature: 33 F (1 C)
Windchill: 28 F (-2 C):1
Dew Point: 33 F (1 C)
Relative Humidity: 100%
Pressure (altimeter): 29.74 in. Hg (1007 hPa)
ob: LIPE 120850Z 33004KT 290V350 4000 -SN SCT002 SCT020 01/01 Q1007
cycle: 9

Station Type Date Time Source
LIPE TAF 2019/12/12 06:21 UTC NOAA

TAF LIPE 120500Z 1206/1306 VRB05KT 9999 FEW020 PROB40
TEMPO 1206/1212 3000 SHSN BKN010
TEMPO 1212/1215 3000 RASN

Example: see airport list